createdAt,value
2022-12-24T08:20:17.372Z,11.52
2022-12-24T08:25:20.518Z,10.40
2022-12-24T08:30:22.812Z,10.15
2022-12-24T08:35:25.034Z,10.45
2022-12-24T08:40:27.403Z,10.15
2022-12-24T08:45:33.173Z,10.10
2022-12-24T08:50:39.880Z,9.88
2022-12-24T08:55:42.432Z,9.02
2022-12-24T09:00:45.280Z,9.30
2022-12-24T09:05:47.879Z,10.52
2022-12-24T09:10:50.082Z,8.80
2022-12-24T09:15:55.728Z,9.50
2022-12-24T09:21:06.603Z,8.45
2022-12-24T09:26:12.339Z,8.77
2022-12-24T09:31:15.182Z,7.65
2022-12-24T09:36:18.558Z,8.23
2022-12-24T09:41:55.330Z,8.77
2022-12-24T09:47:05.387Z,7.28
2022-12-24T09:52:20.658Z,7.53
2022-12-24T09:57:35.877Z,7.80
2022-12-24T10:02:38.240Z,8.10
2022-12-24T10:07:50.136Z,7.93
2022-12-24T10:13:32.690Z,7.50
2022-12-24T10:18:58.985Z,8.38
2022-12-24T10:24:22.466Z,7.72
2022-12-24T10:29:28.935Z,7.80
2022-12-24T10:34:36.284Z,7.55
2022-12-24T10:39:38.553Z,8.40
2022-12-24T10:44:40.953Z,8.93
2022-12-24T10:49:50.347Z,9.98
2022-12-24T10:55:08.083Z,8.73
2022-12-24T11:00:28.579Z,8.25
2022-12-24T11:05:37.440Z,7.35
2022-12-24T11:10:56.169Z,8.00
2022-12-24T11:16:06.464Z,7.82
2022-12-24T11:21:08.853Z,7.68
2022-12-24T11:26:11.132Z,7.55
2022-12-24T11:31:21.099Z,7.18
2022-12-24T11:36:26.529Z,7.15
2022-12-24T11:41:37.295Z,6.82
2022-12-24T11:46:43.386Z,7.13
2022-12-24T11:52:12.107Z,10.35
2022-12-24T11:57:18.766Z,8.38
2022-12-24T12:02:38.159Z,8.20
2022-12-24T12:07:42.707Z,9.60
2022-12-24T12:12:50.156Z,9.35
2022-12-24T12:17:55.320Z,9.93
2022-12-24T12:23:02.648Z,9.55
2022-12-24T12:28:14.353Z,10.35
2022-12-24T12:33:26.756Z,11.00
2022-12-24T12:38:29.343Z,10.90
2022-12-24T12:43:34.483Z,11.07
2022-12-24T12:49:05.959Z,10.85
2022-12-24T12:59:32.349Z,11.25
2022-12-24T13:04:34.495Z,11.48
2022-12-24T13:10:02.474Z,10.68
2022-12-24T13:15:24.910Z,11.10
2022-12-24T13:20:31.440Z,11.85
2022-12-24T13:25:40.095Z,12.40
2022-12-24T13:30:42.660Z,12.30
2022-12-24T13:35:59.788Z,11.30
2022-12-24T13:41:41.464Z,11.55
2022-12-24T13:47:25.364Z,11.68
2022-12-24T13:52:35.401Z,11.23
2022-12-24T13:57:58.040Z,10.43
2022-12-24T14:03:15.447Z,11.45
2022-12-24T14:08:40.376Z,10.88
2022-12-24T14:13:42.535Z,10.60
2022-12-24T14:18:58.087Z,10.35
2022-12-24T14:24:07.760Z,10.75
2022-12-24T14:29:31.195Z,12.43
2022-12-24T14:34:33.512Z,12.32
2022-12-24T14:39:39.033Z,12.70
2022-12-24T14:44:59.696Z,12.18
2022-12-24T14:50:21.758Z,11.35
2022-12-24T14:55:50.885Z,12.75
2022-12-24T15:00:59.888Z,12.02
2022-12-24T15:06:05.366Z,11.45
2022-12-24T15:11:10.233Z,12.75
2022-12-24T15:16:22.260Z,12.00
2022-12-24T15:21:33.239Z,11.05
2022-12-24T15:26:36.628Z,12.65
2022-12-24T15:31:39.035Z,18.02
2022-12-24T15:36:41.251Z,22.00
2022-12-24T15:42:03.967Z,21.30
2022-12-24T15:47:18.691Z,21.60
2022-12-24T15:52:24.657Z,20.25
2022-12-24T15:57:31.940Z,22.13
2022-12-24T16:02:42.262Z,22.50
2022-12-24T16:08:08.599Z,22.52
2022-12-24T16:13:31.327Z,23.25
2022-12-24T16:18:49.027Z,23.55
2022-12-24T16:23:54.629Z,25.98
2022-12-24T16:28:56.874Z,23.55
2022-12-24T16:34:01.067Z,24.08
2022-12-24T16:39:21.563Z,24.27
2022-12-24T16:44:23.760Z,24.05
2022-12-24T16:49:26.971Z,24.65
2022-12-24T16:54:30.117Z,25.80
2022-12-24T16:59:32.715Z,24.30
2022-12-24T17:04:35.142Z,23.73
2022-12-24T17:09:37.404Z,24.60
2022-12-24T17:14:40.745Z,27.15
2022-12-24T17:19:43.109Z,25.30
2022-12-24T17:24:45.691Z,28.58
2022-12-24T17:29:47.984Z,28.25
2022-12-24T17:34:50.242Z,26.77
2022-12-24T17:39:52.472Z,27.33
2022-12-24T17:44:54.731Z,27.60
2022-12-24T17:49:56.993Z,28.23
2022-12-24T17:54:59.358Z,27.00
2022-12-24T18:00:01.760Z,26.45
2022-12-24T18:05:23.903Z,27.88
2022-12-24T18:10:26.173Z,36.35
2022-12-24T18:15:28.435Z,30.60
2022-12-24T18:20:33.778Z,30.42
2022-12-24T18:25:36.023Z,29.30
2022-12-24T18:30:38.253Z,30.48
2022-12-24T18:35:40.523Z,51.33
2022-12-24T18:40:42.772Z,28.02
2022-12-24T18:45:45.854Z,23.95
2022-12-24T18:50:56.187Z,23.42
2022-12-24T18:56:17.816Z,25.08
2022-12-24T19:01:25.378Z,22.55
2022-12-24T19:06:28.107Z,25.45
2022-12-24T19:11:32.587Z,25.20
2022-12-24T19:16:36.930Z,29.15
2022-12-24T19:21:39.298Z,28.15
2022-12-24T19:26:41.595Z,29.48
2022-12-24T19:31:47.194Z,29.10
2022-12-24T19:36:49.653Z,30.63
2022-12-24T19:41:52.500Z,27.35
2022-12-24T19:46:54.801Z,29.52
2022-12-24T19:51:57.280Z,28.23
2022-12-24T19:56:59.518Z,27.92
2022-12-24T20:02:02.341Z,31.23
2022-12-24T20:07:04.669Z,35.78
2022-12-24T20:12:07.325Z,32.75
2022-12-24T20:17:10.018Z,36.03
2022-12-24T20:22:12.753Z,35.45
2022-12-24T20:27:15.058Z,30.23
2022-12-24T20:32:17.426Z,32.13
2022-12-24T20:37:19.748Z,26.90
2022-12-24T20:42:22.029Z,25.95
2022-12-24T20:47:24.290Z,27.65
2022-12-24T20:52:26.620Z,28.85
2022-12-24T20:57:34.398Z,26.33
2022-12-24T21:02:38.730Z,24.45
2022-12-24T21:07:42.991Z,25.92
2022-12-24T21:12:56.762Z,25.83
2022-12-24T21:17:59.802Z,21.00
2022-12-24T21:23:02.318Z,17.05
2022-12-24T21:28:04.774Z,15.73
2022-12-24T21:33:06.997Z,17.02
2022-12-24T21:38:09.249Z,16.10
2022-12-24T21:43:11.447Z,15.80
2022-12-24T21:48:32.200Z,14.45
2022-12-24T21:53:52.988Z,15.18
2022-12-24T21:58:55.202Z,15.35
2022-12-24T22:03:57.438Z,15.60
2022-12-24T22:09:20.437Z,15.52
2022-12-24T22:14:22.678Z,14.27
2022-12-24T22:19:25.201Z,15.18
2022-12-24T22:24:27.461Z,15.30
2022-12-24T22:29:29.791Z,16.48
2022-12-24T22:34:32.840Z,14.35
2022-12-24T22:39:35.112Z,13.27
2022-12-24T22:44:37.369Z,14.00
2022-12-24T22:49:39.585Z,13.73
2022-12-24T22:54:41.945Z,14.07
2022-12-24T22:59:44.500Z,13.25
2022-12-24T23:04:46.919Z,14.88
2022-12-24T23:09:49.237Z,12.63
2022-12-24T23:14:57.338Z,13.52
2022-12-24T23:20:02.081Z,12.15
2022-12-24T23:25:04.602Z,12.93
2022-12-24T23:30:07.626Z,14.27
2022-12-24T23:35:09.896Z,12.27
2022-12-24T23:40:12.327Z,12.73
2022-12-24T23:45:14.762Z,12.77
2022-12-24T23:50:17.146Z,12.75
2022-12-24T23:55:19.391Z,12.55
